Time;durP1;ratioP1;P1;durP2;ratioP2;P2;SDS_P1;SDS_P2;PMS_P1;PMS_P2;Temp;Humidity;BMP_temperature;BMP_pressure;BME280_temperature;BME280_humidity;BME280_pressure;Samples;Min_cycle;Max_cycle;Signal;HPM_P1;HPM_P2
2023/04/20 00:02:02;;;;;;;12.60;6.87;;;;;;;11.08;74.82;94484.91;5127973;28;20914;-75
2023/04/20 00:04:28;;;;;;;9.33;6.33;;;;;;;11.12;75.26;94488.72;5110988;27;20169;-74
2023/04/20 00:06:55;;;;;;;8.10;6.03;;;;;;;11.14;75.50;94482.22;5108402;28;20222;-74
2023/04/20 00:09:21;;;;;;;10.73;6.60;;;;;;;11.16;75.54;94481.97;5107972;28;20153;-75
2023/04/20 00:11:47;;;;;;;8.80;6.67;;;;;;;11.19;74.98;94479.69;5108047;28;20199;-75
2023/04/20 00:14:13;;;;;;;9.57;6.87;;;;;;;11.13;74.85;94456.09;5112657;28;20712;-75
2023/04/20 00:16:38;;;;;;;9.87;6.13;;;;;;;11.21;74.93;94479.47;5128392;27;20179;-74
2023/04/20 00:19:04;;;;;;;9.77;5.73;;;;;;;11.20;74.86;94476.03;5127053;28;20184;-74
2023/04/20 00:21:29;;;;;;;10.37;6.30;;;;;;;11.21;74.95;94474.22;5128185;27;20191;-75
2023/04/20 00:23:54;;;;;;;9.43;6.37;;;;;;;11.18;75.89;94472.81;5128280;28;20200;-75
2023/04/20 00:26:20;;;;;;;8.20;6.33;;;;;;;11.18;75.32;94467.56;5126762;28;20287;-75
2023/04/20 00:28:45;;;;;;;9.53;5.80;;;;;;;11.19;74.90;94476.25;5127935;28;20172;-75
2023/04/20 00:31:11;;;;;;;8.97;6.20;;;;;;;11.14;75.25;94462.97;5128804;28;20233;-75
2023/04/20 00:33:36;;;;;;;11.07;6.60;;;;;;;11.18;74.99;94472.81;5128280;28;20181;-75
2023/04/20 00:36:02;;;;;;;8.80;5.47;;;;;;;11.20;75.26;94469.97;5127979;28;20169;-75
2023/04/20 00:38:27;;;;;;;7.90;5.80;;;;;;;11.18;75.08;94472.03;5127670;27;20223;-75
2023/04/20 00:40:55;;;;;;;8.53;6.20;;;;;;;11.06;75.27;94455.38;5127852;27;20432;-75
2023/04/20 00:43:21;;;;;;;7.37;5.57;;;;;;;11.00;75.72;94449.16;5128260;28;20646;-75
2023/04/20 00:45:46;;;;;;;9.60;5.50;;;;;;;11.10;75.66;94467.06;5128356;27;20211;-75
2023/04/20 00:48:12;;;;;;;7.60;5.03;;;;;;;11.12;75.90;94465.03;5127871;27;20169;-75
2023/04/20 00:50:39;;;;;;;7.88;5.60;;;;;;;11.10;75.42;94456.53;5127261;27;20421;-75
2023/04/20 00:53:06;;;;;;;6.80;5.82;;;;;;;11.15;75.34;94464.59;5126458;27;20971;-75
2023/04/20 00:55:32;;;;;;;9.10;5.47;;;;;;;11.14;74.47;94465.59;5115332;27;20442;-75
2023/04/20 00:57:57;;;;;;;10.85;5.70;;;;;;;10.96;75.60;94459.34;5121626;28;20534;-75
2023/04/20 01:00:24;;;;;;;7.30;5.82;;;;;;;10.96;75.99;94467.25;5127085;28;20918;-75
2023/04/20 01:02:49;;;;;;;8.05;5.32;;;;;;;11.02;75.62;94460.28;5113525;27;20422;-75
2023/04/20 01:05:15;;;;;;;8.95;6.00;;;;;;;10.71;76.40;94429.72;5104980;28;20411;-76
2023/04/20 01:07:40;;;;;;;9.27;6.10;;;;;;;10.85;76.37;94460.09;5126382;27;20433;-75
2023/04/20 01:10:07;;;;;;;9.07;5.77;;;;;;;10.80;76.40;94451.25;5103507;28;20400;-75
2023/04/20 01:12:33;;;;;;;6.77;5.17;;;;;;;10.85;76.32;94456.66;5094049;28;20635;-75
2023/04/20 01:14:58;;;;;;;7.70;5.10;;;;;;;10.88;76.28;94449.13;5093954;28;20172;-75
2023/04/20 01:17:24;;;;;;;11.15;7.10;;;;;;;10.80;76.99;94456.53;5092073;28;20967;-75
2023/04/20 01:19:49;;;;;;;7.17;5.80;;;;;;;10.73;76.63;94443.44;5093507;28;20588;-75
2023/04/20 01:22:17;;;;;;;13.40;6.43;;;;;;;10.77;76.66;94441.16;5093367;28;20174;-75
2023/04/20 01:24:42;;;;;;;8.43;6.13;;;;;;;10.83;76.37;94440.28;5093167;28;20189;-75
2023/04/20 01:27:08;;;;;;;10.40;6.43;;;;;;;10.86;76.36;94445.91;5098531;28;20177;-76
2023/04/20 01:29:34;;;;;;;11.73;5.50;;;;;;;10.97;76.31;94462.78;5113856;28;20201;-75
2023/04/20 01:31:59;;;;;;;8.57;5.70;;;;;;;10.99;76.83;94450.19;5105278;28;20172;-75
2023/04/20 01:34:25;;;;;;;7.03;5.00;;;;;;;11.01;76.42;94452.59;5113840;28;20222;-75
2023/04/20 01:36:50;;;;;;;8.17;6.50;;;;;;;10.80;77.01;94425.75;5112410;28;20768;-75
2023/04/20 01:39:16;;;;;;;8.93;6.05;;;;;;;10.82;76.08;94450.00;5107679;28;20510;-75
2023/04/20 01:41:42;;;;;;;9.23;6.60;;;;;;;10.76;77.24;94440.38;5091748;28;20840;-75
2023/04/20 01:44:07;;;;;;;9.67;6.13;;;;;;;10.83;77.11;94438.44;5112648;28;20543;-75
2023/04/20 01:46:37;;;;;;;8.93;6.23;;;;;;;10.85;76.47;94436.41;5112100;28;20422;-75
2023/04/20 01:49:02;;;;;;;9.68;6.28;;;;;;;10.82;77.29;94443.94;5111714;28;20415;-75
2023/04/20 01:51:28;;;;;;;6.73;5.70;;;;;;;10.90;76.73;94436.53;5099869;28;20734;-75
2023/04/20 01:53:53;;;;;;;8.87;6.10;;;;;;;10.85;76.83;94428.50;5092818;28;20189;-75
2023/04/20 01:56:19;;;;;;;6.97;5.57;;;;;;;10.95;76.47;94438.50;5092853;28;20181;-75
2023/04/20 01:58:44;;;;;;;8.03;6.37;;;;;;;10.90;76.66;94435.72;5098771;28;20225;-75
2023/04/20 02:01:09;;;;;;;9.63;5.43;;;;;;;10.88;76.52;94438.59;5112793;28;20251;-75
2023/04/20 02:03:35;;;;;;;9.07;6.00;;;;;;;10.87;76.90;94434.34;5104288;28;20157;-75
2023/04/20 02:06:00;;;;;;;7.63;6.07;;;;;;;10.84;77.00;94431.34;5112689;28;20660;-75
2023/04/20 02:08:26;;;;;;;8.20;6.17;;;;;;;10.78;77.08;94427.78;5104388;28;20615;-75
2023/04/20 02:10:51;;;;;;;8.40;6.27;;;;;;;10.77;77.21;94436.72;5108244;28;20169;-76
2023/04/20 02:13:16;;;;;;;6.87;5.30;;;;;;;10.78;77.46;94432.25;5092321;28;20169;-75
2023/04/20 02:15:42;;;;;;;10.67;5.27;;;;;;;10.69;77.38;94429.13;5095006;28;20176;-75
2023/04/20 02:18:07;;;;;;;11.27;5.65;;;;;;;10.66;77.63;94432.19;5112624;28;20347;-75
2023/04/20 02:20:33;;;;;;;8.83;5.60;;;;;;;10.62;77.93;94431.03;5112605;28;20168;-76
2023/04/20 02:22:58;;;;;;;6.67;5.07;;;;;;;10.62;78.35;94432.84;5108747;28;20169;-76
2023/04/20 02:25:24;;;;;;;7.47;5.20;;;;;;;10.62;78.32;94427.59;5092529;28;20627;-76
2023/04/20 02:27:50;;;;;;;12.70;7.07;;;;;;;10.50;78.35;94430.16;5090818;28;20416;-75
2023/04/20 02:30:15;;;;;;;11.43;5.57;;;;;;;10.57;78.43;94431.69;5098043;28;20434;-76
2023/04/20 02:32:41;;;;;;;8.30;5.50;;;;;;;10.60;78.60;94433.06;5112571;28;20180;-75
2023/04/20 02:35:06;;;;;;;7.27;5.77;;;;;;;10.64;77.99;94433.44;5109134;28;20542;-75
2023/04/20 02:37:32;;;;;;;8.82;6.35;;;;;;;10.59;78.05;94428.84;5091115;28;20946;-75
2023/04/20 02:39:57;;;;;;;14.03;6.27;;;;;;;10.63;78.29;94432.66;5092391;28;20632;-75
2023/04/20 02:42:23;;;;;;;9.53;7.13;;;;;;;10.60;78.14;94427.81;5091976;28;20239;-75
2023/04/20 02:44:48;;;;;;;9.57;6.20;;;;;;;10.64;77.95;94431.59;5091531;28;20181;-75
2023/04/20 02:47:13;;;;;;;11.97;6.57;;;;;;;10.63;78.01;94430.00;5101965;28;20179;-74
2023/04/20 02:49:39;;;;;;;10.87;7.67;;;;;;;10.62;78.29;94428.41;5111983;28;20273;-75
2023/04/20 02:52:05;;;;;;;14.37;7.70;;;;;;;10.63;78.26;94427.38;5111766;28;20662;-75
2023/04/20 02:54:30;;;;;;;10.23;7.53;;;;;;;10.63;78.57;94432.66;5111586;28;20181;-75
2023/04/20 02:56:57;;;;;;;11.07;6.43;;;;;;;10.64;78.15;94426.31;5111630;28;20233;-75
2023/04/20 02:59:23;;;;;;;13.27;7.60;;;;;;;10.63;78.76;94431.84;5110550;28;20434;-74
2023/04/20 03:01:48;;;;;;;16.30;6.87;;;;;;;10.68;78.89;94424.06;5111465;28;20185;-74
2023/04/20 03:04:13;;;;;;;8.10;6.23;;;;;;;10.68;78.56;94422.25;5110462;28;20242;-74
2023/04/20 03:06:39;;;;;;;10.17;5.77;;;;;;;10.62;78.00;94428.41;5111831;28;20176;-75
2023/04/20 03:09:06;;;;;;;6.33;5.70;;;;;;;10.64;78.47;94430.81;5109706;28;20618;-74
2023/04/20 03:11:31;;;;;;;11.07;5.67;;;;;;;10.68;78.34;94424.88;5104235;28;20170;-75
2023/04/20 03:13:57;;;;;;;11.43;6.20;;;;;;;10.72;78.42;94431.31;5090956;28;20196;-74
2023/04/20 03:16:22;;;;;;;9.83;5.87;;;;;;;10.74;78.29;94429.25;5108169;28;20165;-75
2023/04/20 03:18:47;;;;;;;9.97;5.73;;;;;;;10.73;77.99;94429.47;5111215;28;20200;-75
2023/04/20 03:21:13;;;;;;;6.17;5.33;;;;;;;10.75;77.62;94432.69;5098888;28;20178;-74
2023/04/20 03:23:39;;;;;;;8.80;5.70;;;;;;;10.72;77.58;94433.16;5089551;28;20173;-76
2023/04/20 03:26:04;;;;;;;9.87;6.53;;;;;;;10.75;77.63;94435.31;5091216;28;20181;-75
2023/04/20 03:28:29;;;;;;;10.85;7.38;;;;;;;10.76;77.27;94436.94;5089682;28;20486;-75
2023/04/20 03:30:55;;;;;;;7.67;6.03;;;;;;;10.80;77.10;94432.84;5082769;28;20699;-75
2023/04/20 03:33:20;;;;;;;9.20;5.37;;;;;;;10.87;nan;94441.44;5090830;28;20174;-74
2023/04/20 03:35:46;;;;;;;10.93;6.97;;;;;;;10.86;76.89;94437.19;5089287;28;20507;-74
2023/04/20 03:38:11;;;;;;;12.87;7.77;;;;;;;10.78;76.47;94422.53;5090527;28;20193;-74
2023/04/20 03:40:36;;;;;;;9.93;7.37;;;;;;;10.84;76.71;94440.06;5106411;28;20935;-74
2023/04/20 03:43:02;;;;;;;9.20;6.87;;;;;;;10.85;76.53;94435.59;5110713;28;20180;-74
2023/04/20 03:45:27;;;;;;;14.93;9.50;;;;;;;10.82;76.83;94426.31;5110891;28;20255;-74
2023/04/20 03:47:52;;;;;;;8.67;6.00;;;;;;;10.82;76.34;94421.03;5110520;28;20184;-74
2023/04/20 03:50:18;;;;;;;13.63;7.77;;;;;;;10.99;76.55;94447.56;5109396;28;20446;-74
2023/04/20 03:52:43;;;;;;;9.13;6.60;;;;;;;11.00;76.16;94440.44;5097636;28;20182;-75
2023/04/20 03:55:09;;;;;;;10.53;6.90;;;;;;;11.02;76.04;94438.41;5088968;28;20272;-74
2023/04/20 03:57:34;;;;;;;10.20;6.90;;;;;;;11.00;76.40;94445.72;5089196;28;20424;-74
2023/04/20 04:00:00;;;;;;;10.70;6.37;;;;;;;11.00;76.10;94440.44;5099653;28;20181;-75
2023/04/20 04:02:25;;;;;;;11.73;6.70;;;;;;;10.93;76.51;94428.19;5111437;28;20595;-76
2023/04/20 04:04:51;;;;;;;10.80;6.70;;;;;;;11.08;76.54;94437.50;5103144;28;20174;-75
2023/04/20 04:07:16;;;;;;;11.33;6.57;;;;;;;10.99;76.38;94439.66;5109848;28;20290;-76
2023/04/20 04:09:41;;;;;;;8.23;6.13;;;;;;;11.08;76.54;94448.84;5102489;28;20177;-75
2023/04/20 04:12:07;;;;;;;11.70;6.20;;;;;;;11.09;76.25;94445.19;5099818;28;20188;-75
2023/04/20 04:14:34;;;;;;;10.27;6.73;;;;;;;11.12;75.99;94454.47;5098656;28;20177;-79
2023/04/20 04:16:59;;;;;;;10.30;7.90;;;;;;;11.10;75.78;94457.34;5097655;28;20173;-75
2023/04/20 04:19:25;;;;;;;13.60;8.23;;;;;;;11.01;75.84;94437.59;5108930;28;20200;-75
2023/04/20 04:21:50;;;;;;;13.00;8.27;;;;;;;11.03;76.21;94453.19;5094748;28;20435;-75
2023/04/20 04:24:16;;;;;;;14.63;6.83;;;;;;;11.08;76.23;94450.69;5094992;28;20201;-75
2023/04/20 04:26:42;;;;;;;11.73;7.20;;;;;;;11.09;76.25;94453.09;5089604;28;20212;-75
2023/04/20 04:29:09;;;;;;;12.23;7.20;;;;;;;10.90;76.16;94412.81;5090598;28;20223;-75
2023/04/20 04:31:34;;;;;;;8.27;6.53;;;;;;;11.18;75.69;94448.31;5100099;28;20282;-74
2023/04/20 04:34:00;;;;;;;8.30;5.97;;;;;;;11.08;75.25;94432.22;5104082;28;20638;-74
2023/04/20 04:36:25;;;;;;;13.75;8.43;;;;;;;11.20;75.14;94456.78;5088328;28;20464;-75
2023/04/20 04:38:51;;;;;;;10.97;7.13;;;;;;;11.08;74.48;94432.22;5089633;28;20189;-75
2023/04/20 04:41:17;;;;;;;17.67;9.80;;;;;;;11.19;75.04;94458.63;5089642;28;20405;-75
2023/04/20 04:43:43;;;;;;;15.40;9.05;;;;;;;11.19;75.28;94465.72;5098958;28;20911;-75
2023/04/20 04:46:10;;;;;;;15.07;8.55;;;;;;;11.27;75.25;94462.78;5112690;28;20433;-74
2023/04/20 04:48:42;;;;;;;9.77;7.20;;;;;;;11.34;75.41;94466.91;5114357;28;20183;-75
2023/04/20 04:51:08;;;;;;;14.98;8.35;;;;;;;11.41;74.31;94466.03;5091866;28;20420;-74
2023/04/20 04:53:34;;;;;;;12.98;8.27;;;;;;;11.37;74.66;94456.97;5092865;28;20419;-75
2023/04/20 04:55:59;;;;;;;22.10;7.77;;;;;;;11.39;74.68;94455.72;5093571;28;20177;-75
2023/04/20 04:58:25;;;;;;;14.10;9.13;;;;;;;11.51;75.17;94468.91;5092225;28;20446;-75
2023/04/20 05:00:50;;;;;;;25.23;10.20;;;;;;;11.60;74.74;94481.53;5094906;28;20265;-75
2023/04/20 05:03:16;;;;;;;13.43;9.00;;;;;;;11.46;73.22;94474.06;5093058;28;20404;-75
2023/04/20 05:05:41;;;;;;;13.00;8.73;;;;;;;11.45;74.13;94483.00;5094187;28;20184;-75
2023/04/20 05:08:07;;;;;;;12.57;7.67;;;;;;;11.49;74.42;94476.25;5094167;28;21018;-75
2023/04/20 05:10:32;;;;;;;12.77;8.03;;;;;;;11.62;74.90;94490.03;5093856;28;20462;-75
2023/04/20 05:12:59;;;;;;;11.33;7.33;;;;;;;11.52;73.92;94457.34;5093654;28;20708;-75
2023/04/20 05:15:25;;;;;;;11.23;7.90;;;;;;;11.72;73.55;94487.66;5096202;28;20333;-76
2023/04/20 05:17:50;;;;;;;14.90;7.93;;;;;;;11.72;73.10;94487.66;5102424;28;20232;-76
2023/04/20 05:20:16;;;;;;;14.93;8.20;;;;;;;11.74;73.33;94484.78;5093726;28;20234;-75
2023/04/20 05:22:42;;;;;;;15.30;8.87;;;;;;;11.69;73.64;94482.00;5099455;28;20219;-75
2023/04/20 05:25:07;;;;;;;15.43;8.90;;;;;;;11.75;73.49;94493.53;5104764;28;20659;-76
2023/04/20 05:27:33;;;;;;;11.57;8.63;;;;;;;11.77;73.96;94488.81;5093566;28;20594;-75
2023/04/20 05:29:59;;;;;;;16.10;8.20;;;;;;;11.76;73.62;94481.97;5101021;28;20234;-74
2023/04/20 05:32:24;;;;;;;20.30;9.37;;;;;;;11.88;72.81;94501.22;5103078;28;20666;-75
2023/04/20 05:34:50;;;;;;;20.37;8.93;;;;;;;11.88;73.05;94493.31;5107694;28;20165;-74
2023/04/20 05:37:15;;;;;;;22.17;11.17;;;;;;;11.88;73.78;94491.47;5104435;28;20925;-75
2023/04/20 05:39:41;;;;;;;14.53;9.43;;;;;;;11.92;73.40;94500.56;5093151;28;20713;-74
2023/04/20 05:42:06;;;;;;;15.20;8.70;;;;;;;11.95;72.92;94501.91;5093152;28;20206;-75
2023/04/20 05:44:32;;;;;;;16.30;8.47;;;;;;;11.98;73.67;94498.84;5093214;28;20180;-74
2023/04/20 05:46:58;;;;;;;18.00;9.53;;;;;;;12.04;73.07;94496.09;5107264;28;20175;-75
2023/04/20 05:49:25;;;;;;;13.70;8.33;;;;;;;12.08;73.25;94499.09;5107972;28;20166;-74
2023/04/20 05:51:50;;;;;;;16.50;9.60;;;;;;;12.07;73.50;94508.03;5096546;28;20158;-75
2023/04/20 05:54:16;;;;;;;15.43;9.13;;;;;;;11.94;74.15;94477.38;5109864;28;20558;-74
2023/04/20 05:56:41;;;;;;;15.30;9.57;;;;;;;12.01;74.71;94498.41;5103239;28;20211;-75
2023/04/20 05:59:07;;;;;;;13.47;9.73;;;;;;;11.96;75.28;94485.88;5099207;28;20248;-74
2023/04/20 06:01:33;;;;;;;15.07;9.13;;;;;;;11.97;74.86;94486.69;5101354;28;20170;-74
2023/04/20 06:03:58;;;;;;;15.90;9.33;;;;;;;11.95;75.34;94486.91;5096206;28;20176;-75
2023/04/20 06:06:24;;;;;;;13.90;9.23;;;;;;;11.82;75.81;94468.66;5106201;28;20174;-74
2023/04/20 06:08:50;;;;;;;19.33;10.80;;;;;;;11.95;75.91;94494.00;5096273;28;20161;-74
2023/04/20 06:11:16;;;;;;;13.83;9.50;;;;;;;11.96;76.40;94490.34;5092658;28;20547;-74
2023/04/20 06:13:41;;;;;;;13.90;9.43;;;;;;;12.00;76.51;94494.16;5092648;28;20173;-74
2023/04/20 06:16:08;;;;;;;14.77;10.13;;;;;;;12.07;76.66;94500.09;5092509;28;20204;-75
2023/04/20 06:18:35;;;;;;;14.93;10.20;;;;;;;11.98;nan;94480.38;5092514;28;20189;-75
2023/04/20 06:21:00;;;;;;;15.27;9.37;;;;;;;11.99;75.93;94477.50;5092450;28;20173;-75
2023/04/20 06:23:26;;;;;;;16.20;10.13;;;;;;;12.02;76.04;94498.13;5092293;28;20646;-74
2023/04/20 06:25:51;;;;;;;12.97;9.67;;;;;;;12.03;76.26;94498.94;5098116;28;20177;-75
2023/04/20 06:28:17;;;;;;;15.63;10.33;;;;;;;12.06;76.39;94494.03;5092502;28;20173;-75
2023/04/20 06:30:42;;;;;;;15.70;10.00;;;;;;;12.11;76.51;94508.38;5107982;28;20169;-75
2023/04/20 06:33:08;;;;;;;15.53;10.10;;;;;;;12.16;77.42;94504.00;5102930;28;20612;-75
2023/04/20 06:35:33;;;;;;;17.33;10.77;;;;;;;12.01;75.56;94485.19;5091173;28;20178;-75
2023/04/20 06:38:01;;;;;;;18.87;11.07;;;;;;;12.14;76.18;94508.72;5098990;28;20203;-75
2023/04/20 06:40:27;;;;;;;15.83;10.43;;;;;;;12.19;76.13;94508.03;5092594;28;20216;-75
2023/04/20 06:42:53;;;;;;;18.93;11.33;;;;;;;12.22;75.75;94513.66;5092389;28;20161;-75
2023/04/20 06:45:19;;;;;;;17.10;11.67;;;;;;;12.24;76.14;94516.06;5092270;28;20188;-76
2023/04/20 06:47:44;;;;;;;17.93;10.77;;;;;;;12.34;76.70;94519.75;5097266;28;20200;-75
2023/04/20 06:50:10;;;;;;;16.10;9.83;;;;;;;12.26;76.60;94498.16;5106501;28;20200;-75
2023/04/20 06:52:37;;;;;;;13.77;9.23;;;;;;;12.40;76.87;94528.56;5091756;28;20673;-75
2023/04/20 06:55:02;;;;;;;17.23;10.20;;;;;;;12.38;76.57;94522.72;5092167;28;20158;-75
2023/04/20 06:57:28;;;;;;;15.70;9.67;;;;;;;12.26;76.88;94524.56;5091754;28;20256;-75
2023/04/20 06:59:53;;;;;;;14.53;9.90;;;;;;;12.21;77.22;94525.22;5105110;28;20308;-75
2023/04/20 07:02:18;;;;;;;16.63;10.90;;;;;;;12.01;77.97;94495.75;5112340;28;20248;-75
2023/04/20 07:04:44;;;;;;;16.87;11.00;;;;;;;12.19;78.83;94524.69;5112250;28;20184;-76
2023/04/20 07:07:10;;;;;;;16.03;10.77;;;;;;;11.87;78.81;94468.78;5105359;28;20631;-77
2023/04/20 07:09:35;;;;;;;18.03;10.83;;;;;;;12.29;78.74;94529.34;5102424;28;20169;-76
2023/04/20 07:12:01;;;;;;;20.90;11.70;;;;;;;12.33;78.46;94531.31;5103952;28;20880;-77
2023/04/20 07:14:27;;;;;;;20.20;12.23;;;;;;;12.31;79.73;94522.03;5112571;28;20265;-77
2023/04/20 07:16:53;;;;;;;21.97;12.03;;;;;;;12.39;79.39;94530.41;5096789;28;20268;-77
2023/04/20 07:19:19;;;;;;;19.50;11.50;;;;;;;12.40;79.53;94515.38;5100414;28;20223;-75
2023/04/20 07:21:45;;;;;;;19.53;11.13;;;;;;;12.58;78.30;94525.81;5101025;28;20171;-76
2023/04/20 07:24:10;;;;;;;17.93;11.50;;;;;;;12.66;77.93;94514.88;5099717;28;20229;-76
2023/04/20 07:26:36;;;;;;;18.20;11.93;;;;;;;12.97;78.18;94526.91;5099895;28;20256;-76
2023/04/20 07:29:01;;;;;;;19.23;11.60;;;;;;;13.24;78.16;94521.91;5109802;28;20681;-76
2023/04/20 07:31:26;;;;;;;17.33;11.07;;;;;;;13.50;77.25;94523.97;5112717;28;20197;-76
2023/04/20 07:33:52;;;;;;;13.50;9.53;;;;;;;13.71;75.42;94525.16;5106867;28;20172;-76
2023/04/20 07:36:18;;;;;;;17.57;10.77;;;;;;;13.91;74.98;94524.72;5095557;28;20181;-76
2023/04/20 07:38:44;;;;;;;15.13;10.13;;;;;;;14.04;73.51;94513.81;5102766;28;20186;-76
2023/04/20 07:41:10;;;;;;;12.70;9.27;;;;;;;14.24;72.83;94523.91;5094985;28;20188;-75
2023/04/20 07:43:35;;;;;;;11.63;9.27;;;;;;;14.37;70.65;94528.88;5091241;28;20178;-76
2023/04/20 07:46:01;;;;;;;13.17;9.47;;;;;;;14.42;69.01;94529.00;5093886;28;20181;-75
2023/04/20 07:48:26;;;;;;;13.03;8.23;;;;;;;14.67;69.17;94536.50;5094715;28;20560;-75
2023/04/20 07:50:52;;;;;;;13.37;8.33;;;;;;;14.89;68.49;94518.78;5111366;28;20883;-75
2023/04/20 07:53:17;;;;;;;13.30;9.03;;;;;;;15.19;67.99;94534.28;5104472;28;20232;-76
2023/04/20 07:55:43;;;;;;;14.47;9.77;;;;;;;15.54;68.55;94527.81;5094468;28;20630;-76
2023/04/20 07:58:08;;;;;;;12.50;9.10;;;;;;;15.82;65.50;94535.53;5094243;28;20220;-76
2023/04/20 08:00:34;;;;;;;9.87;6.93;;;;;;;16.10;67.50;94527.28;5091343;28;20682;-76
2023/04/20 08:02:59;;;;;;;13.20;8.10;;;;;;;16.44;65.63;94527.78;5093299;28;20225;-76
2023/04/20 08:05:25;;;;;;;12.82;8.30;;;;;;;16.65;63.54;94535.94;5098077;28;20565;-76
2023/04/20 08:07:50;;;;;;;8.23;6.97;;;;;;;16.66;60.96;94534.91;5094320;28;20182;-76
2023/04/20 08:10:16;;;;;;;11.75;7.65;;;;;;;16.55;61.10;94536.66;5091141;28;20165;-76
2023/04/20 08:12:41;;;;;;;10.05;7.32;;;;;;;16.34;62.21;94542.88;5091183;28;20185;-76
2023/04/20 08:15:08;;;;;;;12.00;7.93;;;;;;;15.89;62.08;94530.81;5096660;28;20184;-76
2023/04/20 08:17:33;;;;;;;11.00;7.90;;;;;;;15.69;63.76;94535.91;5111172;28;20221;-75
2023/04/20 08:19:58;;;;;;;13.45;7.68;;;;;;;15.48;63.87;94537.50;5100292;28;20566;-76
2023/04/20 08:22:28;;;;;;;11.50;7.93;;;;;;;15.25;63.93;94537.78;5107613;28;20635;-75
2023/04/20 08:24:54;;;;;;;13.70;8.00;;;;;;;14.97;65.07;94536.91;5094735;28;20566;-75
2023/04/20 08:27:19;;;;;;;8.73;6.40;;;;;;;14.70;65.97;94541.31;5093690;28;20162;-75
2023/04/20 08:29:45;;;;;;;10.33;7.70;;;;;;;14.55;66.82;94533.94;5093758;28;20673;-75
2023/04/20 08:32:11;;;;;;;9.07;7.37;;;;;;;14.54;66.27;94544.78;5094014;28;20173;-75
2023/04/20 08:34:37;;;;;;;10.53;7.80;;;;;;;14.45;66.30;94544.38;5092837;28;20169;-75
2023/04/20 08:37:03;;;;;;;10.50;7.30;;;;;;;14.35;67.39;94538.94;5091618;28;20643;-75
2023/04/20 08:39:29;;;;;;;16.17;8.87;;;;;;;14.39;67.57;94536.59;5096688;28;20227;-74
2023/04/20 08:41:55;;;;;;;12.33;8.10;;;;;;;14.43;66.67;94535.91;5094831;28;20212;-75
2023/04/20 08:44:21;;;;;;;14.83;8.27;;;;;;;14.42;67.07;94542.25;5093401;28;20611;-75
2023/04/20 08:46:47;;;;;;;13.60;7.73;;;;;;;14.40;66.40;94539.03;5093631;28;20606;-75
2023/04/20 08:49:18;;;;;;;9.97;6.50;;;;;;;14.42;67.59;94538.78;5093231;28;20166;-75
2023/04/20 08:51:45;;;;;;;13.53;8.00;;;;;;;14.42;66.03;94544.09;5093466;28;20653;-75
2023/04/20 08:54:11;;;;;;;12.80;8.50;;;;;;;14.32;66.92;94537.56;5093240;28;20182;-75
2023/04/20 08:56:39;;;;;;;12.10;7.43;;;;;;;14.26;67.04;94537.72;5093257;28;20182;-75
2023/04/20 08:59:08;;;;;;;11.60;7.60;;;;;;;14.19;67.57;94534.41;5092492;28;20790;-75
2023/04/20 09:01:35;;;;;;;17.47;8.40;;;;;;;14.11;67.65;94540.09;5092678;28;20516;-75
2023/04/20 09:04:01;;;;;;;10.13;7.60;;;;;;;14.00;67.67;94538.34;5093249;28;20200;-75
2023/04/20 09:06:27;;;;;;;16.70;7.40;;;;;;;14.02;68.53;94534.41;5093049;28;20644;-75
2023/04/20 09:08:52;;;;;;;8.80;7.27;;;;;;;14.01;67.05;94538.09;5093232;28;20161;-75
2023/04/20 09:11:26;;;;;;;15.33;8.87;;;;;;;13.97;67.42;94536.97;5092963;28;20174;-75
2023/04/20 09:14:03;;;;;;;12.43;8.37;;;;;;;13.98;68.47;94542.03;5093048;28;20259;-75
2023/04/20 09:16:30;;;;;;;11.80;7.70;;;;;;;13.92;67.47;94540.31;5092955;28;20199;-75
2023/04/20 09:18:56;;;;;;;11.03;7.30;;;;;;;13.88;67.69;94536.56;5092754;28;20274;-75
2023/04/20 09:21:23;;;;;;;13.27;8.13;;;;;;;13.98;68.31;94536.75;5092805;28;20252;-75
2023/04/20 09:24:01;;;;;;;10.23;7.90;;;;;;;14.16;69.13;94527.78;5092782;28;20177;-75
2023/04/20 09:26:31;;;;;;;10.93;7.60;;;;;;;14.25;68.00;94504.34;5093043;28;20175;-75
2023/04/20 09:28:57;;;;;;;13.00;7.90;;;;;;;14.63;68.09;94528.22;5092472;28;20170;-75
2023/04/20 09:31:23;;;;;;;17.07;8.30;;;;;;;14.71;66.35;94514.56;5091977;28;20243;-75
2023/04/20 09:33:58;;;;;;;15.30;8.37;;;;;;;14.96;66.83;94522.03;5092521;28;20170;-75
2023/04/20 09:36:35;;;;;;;15.10;8.80;;;;;;;14.98;65.20;94516.50;5092673;28;20181;-75
2023/04/20 09:39:08;;;;;;;11.13;7.40;;;;;;;14.85;64.50;94527.47;5092486;28;20197;-75
2023/04/20 09:41:34;;;;;;;11.20;8.07;;;;;;;14.85;65.18;94507.06;5092448;28;20665;-75
2023/04/20 09:44:01;;;;;;;9.60;7.43;;;;;;;14.95;64.74;94523.13;5093299;28;20222;-75
2023/04/20 09:46:31;;;;;;;12.63;8.40;;;;;;;15.03;66.16;94521.88;5112519;28;20177;-75
2023/04/20 09:48:59;;;;;;;12.33;8.33;;;;;;;15.20;64.85;94519.97;5113685;28;20165;-75
2023/04/20 09:51:28;;;;;;;12.93;8.63;;;;;;;15.31;65.30;94519.00;5113702;28;20176;-75
2023/04/20 09:53:58;;;;;;;10.65;8.40;;;;;;;15.50;64.34;94519.50;5096977;28;20725;-75
2023/04/20 09:56:25;;;;;;;16.48;8.57;;;;;;;15.37;63.04;94520.69;5104996;28;20189;-75
2023/04/20 09:58:51;;;;;;;11.47;8.27;;;;;;;15.10;64.67;94493.31;5093015;28;20236;-76
2023/04/20 10:01:17;;;;;;;10.93;7.78;;;;;;;15.30;65.83;94485.63;5093070;28;20182;-76
2023/04/20 10:03:43;;;;;;;14.77;8.33;;;;;;;15.74;67.03;94510.22;5092397;28;20257;-76
2023/04/20 10:06:35;;;;;;;10.75;7.90;;;;;;;15.94;62.65;94498.19;5089855;28;20173;-75
2023/04/20 10:09:04;;;;;;;10.18;7.72;;;;;;;16.04;62.43;94491.13;5090643;28;20173;-76
2023/04/20 10:11:31;;;;;;;16.42;8.70;;;;;;;16.26;62.27;94506.94;5091414;28;20183;-75
2023/04/20 10:13:57;;;;;;;11.23;7.60;;;;;;;16.21;62.20;94505.06;5090971;28;20590;-75
2023/04/20 10:16:24;;;;;;;11.57;8.00;;;;;;;16.33;62.04;94502.22;5090503;28;20280;-76
2023/04/20 10:19:01;;;;;;;11.43;7.30;;;;;;;16.45;61.04;94499.38;5093749;28;20197;-76
2023/04/20 10:21:28;;;;;;;11.55;7.43;;;;;;;16.48;60.84;94497.00;5090796;28;20174;-75
2023/04/20 10:23:54;;;;;;;10.80;7.28;;;;;;;16.48;60.41;94493.56;5091721;28;20209;-75
2023/04/20 10:26:19;;;;;;;14.45;7.50;;;;;;;16.64;61.90;94494.47;5101924;28;20208;-75
2023/04/20 10:28:45;;;;;;;8.50;6.70;;;;;;;16.51;59.42;94474.44;5092120;28;20188;-76
2023/04/20 10:31:12;;;;;;;10.80;7.03;;;;;;;16.59;58.50;94497.88;5092232;28;21055;-75
2023/04/20 10:33:51;;;;;;;9.20;6.65;;;;;;;16.49;59.24;94503.13;5092238;28;20192;-76
2023/04/20 10:36:28;;;;;;;11.75;7.68;;;;;;;16.07;58.51;94471.22;5088937;28;20193;-76
2023/04/20 10:38:54;;;;;;;12.35;7.50;;;;;;;16.30;59.54;94492.09;5090510;28;20241;-75
2023/04/20 10:41:20;;;;;;;11.45;8.10;;;;;;;16.34;60.41;94479.94;5092518;28;20271;-76
2023/04/20 10:43:49;;;;;;;13.38;7.70;;;;;;;16.44;60.72;94487.13;5088601;28;20177;-76
2023/04/20 10:46:23;;;;;;;11.20;8.07;;;;;;;16.51;61.31;94485.09;5090468;28;20200;-76
2023/04/20 10:48:55;;;;;;;9.65;8.02;;;;;;;16.56;61.57;94480.59;5103009;28;20174;-75
2023/04/20 10:51:21;;;;;;;11.93;7.82;;;;;;;16.75;60.59;94488.16;5087104;28;20649;-75
2023/04/20 10:54:03;;;;;;;11.45;7.57;;;;;;;16.96;62.19;94489.84;5094068;28;20196;-76
2023/04/20 10:56:38;;;;;;;8.55;6.45;;;;;;;16.96;60.27;94485.34;5089634;28;20218;-76
2023/04/20 10:59:11;;;;;;;8.68;6.45;;;;;;;17.18;61.03;94493.16;5092796;28;20228;-75
2023/04/20 11:01:37;;;;;;;8.90;7.03;;;;;;;17.26;59.17;94486.53;5097631;28;20181;-76
2023/04/20 11:04:03;;;;;;;7.95;6.03;;;;;;;17.33;59.38;94484.41;5102154;28;20246;-77
2023/04/20 11:06:30;;;;;;;7.50;6.30;;;;;;;17.13;57.70;94465.72;5105832;28;20215;-76
2023/04/20 11:08:56;;;;;;;9.88;6.32;;;;;;;17.22;59.29;94472.13;5094448;28;20293;-77
2023/04/20 11:11:27;;;;;;;12.15;10.68;;;;;;;17.38;59.64;94479.13;5106182;28;20703;-76
2023/04/20 11:14:05;;;;;;;9.30;7.65;;;;;;;17.03;58.70;94476.34;5092653;28;21036;-77
2023/04/20 11:16:31;;;;;;;11.15;7.55;;;;;;;16.85;60.06;94469.63;5091417;28;20177;-76
2023/04/20 11:18:57;;;;;;;11.63;7.82;;;;;;;16.94;60.97;94450.25;5090965;28;20587;-76
2023/04/20 11:21:22;;;;;;;13.25;6.63;;;;;;;17.21;60.36;94454.59;5091595;28;20266;-76
2023/04/20 11:23:49;;;;;;;9.95;6.85;;;;;;;17.50;59.52;94439.75;5096466;28;20177;-76